Time;durP1;ratioP1;P1;durP2;ratioP2;P2;SDS_P1;SDS_P2;PMS_P1;PMS_P2;Temp;Humidity;BMP_temperature;BMP_pressure;BME280_temperature;BME280_humidity;BME280_pressure;Samples;Min_cycle;Max_cycle;Signal;HPM_P1;HPM_P2
2022/10/16 00:00:40;;;;;;;2.80;1.35;;;;;;;;;;5032105;28;20424;-84
2022/10/16 00:03:06;;;;;;;3.05;1.60;;;;;;;;;;4999682;28;20458;-83
2022/10/16 00:05:33;;;;;;;3.83;1.50;;;;;;;;;;5016230;28;20033;-83
2022/10/16 00:07:58;;;;;;;3.30;1.50;;;;;;;;;;5032258;28;20082;-83
2022/10/16 00:10:24;;;;;;;2.97;1.40;;;;;;;;;;5033450;28;20064;-82
2022/10/16 00:12:49;;;;;;;4.30;1.58;;;;;;;;;;5033317;28;20037;-82
2022/10/16 00:15:15;;;;;;;2.90;1.40;;;;;;;;;;5015762;28;20083;-81
2022/10/16 00:17:40;;;;;;;2.65;1.40;;;;;;;;;;5015726;28;20056;-82
2022/10/16 00:20:06;;;;;;;3.97;1.83;;;;;;;;;;5031905;28;20138;-82
2022/10/16 00:22:31;;;;;;;2.67;1.27;;;;;;;;;;5034806;28;20029;-82
2022/10/16 00:25:00;;;;;;;3.05;1.52;;;;;;;;;;5032552;28;20030;-82
2022/10/16 00:27:26;;;;;;;3.22;1.45;;;;;;;;;;5015886;28;20476;-82
2022/10/16 00:29:52;;;;;;;3.17;1.80;;;;;;;;;;5031930;28;20044;-81
2022/10/16 00:32:19;;;;;;;3.22;1.40;;;;;;;;;;5015526;28;20095;-82
2022/10/16 00:34:44;;;;;;;2.13;1.40;;;;;;;;;;5032411;28;20456;-82
2022/10/16 00:37:09;;;;;;;4.10;1.50;;;;;;;;;;5015453;28;20036;-81
2022/10/16 00:39:56;;;;;;;3.92;1.55;;;;;;;;;;5000523;28;20037;-81
2022/10/16 00:42:34;;;;;;;2.72;1.42;;;;;;;;;;5039092;28;20040;-81
2022/10/16 00:45:00;;;;;;;2.58;1.35;;;;;;;;;;5023441;28;20030;-81
2022/10/16 00:47:39;;;;;;;4.68;1.40;;;;;;;;;;5035941;28;20031;-82
2022/10/16 00:50:09;;;;;;;3.85;1.63;;;;;;;;;;5035554;28;20488;-82
2022/10/16 00:52:35;;;;;;;2.97;1.50;;;;;;;;;;5035692;28;20413;-81
2022/10/16 00:55:03;;;;;;;4.82;1.50;;;;;;;;;;5018587;28;20053;-81
2022/10/16 00:57:28;;;;;;;4.13;1.50;;;;;;;;;;5035358;28;20025;-81
2022/10/16 00:59:54;;;;;;;3.25;1.70;;;;;;;;;;5019123;28;20083;-82
2022/10/16 01:02:20;;;;;;;4.15;1.50;;;;;;;;;;5037110;28;20040;-82
2022/10/16 01:04:48;;;;;;;3.47;1.63;;;;;;;;;;5019123;28;20030;-82
2022/10/16 01:07:48;;;;;;;2.42;1.40;;;;;;;;;;5035447;28;20108;-82
2022/10/16 01:10:40;;;;;;;5.70;1.52;;;;;;;;;;5036822;28;20036;-82
2022/10/16 01:13:11;;;;;;;3.75;1.45;;;;;;;;;;5035107;28;20014;-81
2022/10/16 01:15:42;;;;;;;3.85;1.55;;;;;;;;;;5035427;28;20062;-81
2022/10/16 01:18:15;;;;;;;1.80;1.50;;;;;;;;;;5035542;28;20164;-82
2022/10/16 01:20:45;;;;;;;2.75;1.50;;;;;;;;;;5032161;28;20033;-81
2022/10/16 01:23:26;;;;;;;2.45;1.73;;;;;;;;;;5015181;28;20037;-81
2022/10/16 01:26:22;;;;;;;3.67;1.70;;;;;;;;;;5016629;28;20080;-81
2022/10/16 01:28:57;;;;;;;1.95;1.40;;;;;;;;;;5016392;28;20033;-81
2022/10/16 01:31:26;;;;;;;3.20;1.70;;;;;;;;;;5015356;28;20034;-81
2022/10/16 01:34:32;;;;;;;2.00;1.35;;;;;;;;;;5015002;28;20053;-81
2022/10/16 01:37:04;;;;;;;3.75;1.58;;;;;;;;;;4998883;28;20387;-81
2022/10/16 01:39:32;;;;;;;3.17;1.35;;;;;;;;;;5015293;28;20026;-81
2022/10/16 01:42:06;;;;;;;4.68;1.73;;;;;;;;;;5015074;28;20030;-81
2022/10/16 01:44:33;;;;;;;2.60;1.40;;;;;;;;;;4998457;28;20021;-82
2022/10/16 01:46:59;;;;;;;4.03;1.50;;;;;;;;;;5016004;28;20041;-81
2022/10/16 01:49:26;;;;;;;2.58;1.50;;;;;;;;;;4998419;28;20365;-81
2022/10/16 01:51:55;;;;;;;1.98;1.42;;;;;;;;;;5014832;28;20030;-82
2022/10/16 01:54:22;;;;;;;2.88;1.70;;;;;;;;;;5014709;28;20056;-82
2022/10/16 01:56:49;;;;;;;1.98;1.35;;;;;;;;;;5014678;28;20022;-82
2022/10/16 01:59:17;;;;;;;1.90;1.30;;;;;;;;;;5014503;28;20038;-82
2022/10/16 02:01:46;;;;;;;2.45;1.30;;;;;;;;;;4997990;28;20038;-81
2022/10/16 02:04:33;;;;;;;3.28;1.30;;;;;;;;;;4998172;28;20030;-81
2022/10/16 02:06:59;;;;;;;2.13;1.40;;;;;;;;;;5014412;28;20033;-82
2022/10/16 02:09:24;;;;;;;2.00;1.25;;;;;;;;;;5014703;28;20401;-81
2022/10/16 02:11:52;;;;;;;3.17;1.40;;;;;;;;;;5014363;28;20466;-81
2022/10/16 02:14:18;;;;;;;2.63;1.35;;;;;;;;;;5014520;28;20018;-82
2022/10/16 02:16:45;;;;;;;2.58;1.50;;;;;;;;;;5016053;28;20377;-81
2022/10/16 02:19:13;;;;;;;2.70;1.40;;;;;;;;;;5014531;28;20056;-82
2022/10/16 02:21:41;;;;;;;2.38;1.38;;;;;;;;;;5014779;28;20029;-81
2022/10/16 02:24:31;;;;;;;4.07;1.30;;;;;;;;;;5015622;28;20025;-82
2022/10/16 02:26:59;;;;;;;1.67;1.20;;;;;;;;;;5014458;28;20037;-81
2022/10/16 02:29:26;;;;;;;2.83;1.60;;;;;;;;;;5014039;28;20033;-82
2022/10/16 02:31:56;;;;;;;3.40;1.98;;;;;;;;;;5014505;28;20476;-82
2022/10/16 02:34:24;;;;;;;2.10;1.50;;;;;;;;;;4997542;28;20035;-81
2022/10/16 02:36:50;;;;;;;1.95;1.40;;;;;;;;;;4997776;28;20034;-82
2022/10/16 02:39:16;;;;;;;1.40;1.30;;;;;;;;;;5014251;28;20159;-81
2022/10/16 02:41:42;;;;;;;2.08;1.30;;;;;;;;;;5013850;28;20053;-81
2022/10/16 02:44:07;;;;;;;3.55;1.50;;;;;;;;;;5013868;28;20473;-81
2022/10/16 02:46:33;;;;;;;1.60;1.50;;;;;;;;;;5013588;28;20070;-82
2022/10/16 02:48:58;;;;;;;3.05;1.52;;;;;;;;;;4981391;28;20034;-81
2022/10/16 02:51:24;;;;;;;1.80;1.40;;;;;;;;;;5013640;28;20030;-82
2022/10/16 02:53:49;;;;;;;3.05;1.45;;;;;;;;;;5013791;28;20026;-82
2022/10/16 02:56:14;;;;;;;1.63;1.50;;;;;;;;;;5013444;28;20471;-81
2022/10/16 02:58:40;;;;;;;2.60;1.40;;;;;;;;;;4998173;28;20046;-82
2022/10/16 03:01:05;;;;;;;4.07;1.60;;;;;;;;;;5014730;28;20065;-81
2022/10/16 03:03:31;;;;;;;1.95;1.30;;;;;;;;;;4980860;28;20538;-81
2022/10/16 03:05:56;;;;;;;2.08;1.40;;;;;;;;;;4996470;28;20033;-81
2022/10/16 03:08:23;;;;;;;1.80;1.48;;;;;;;;;;5013453;28;20056;-81
2022/10/16 03:10:49;;;;;;;2.28;1.48;;;;;;;;;;5013828;28;20034;-82
2022/10/16 03:13:15;;;;;;;2.20;1.30;;;;;;;;;;5013628;28;20033;-82
2022/10/16 03:15:40;;;;;;;2.30;1.30;;;;;;;;;;5013895;28;20403;-82
2022/10/16 03:18:05;;;;;;;4.38;1.50;;;;;;;;;;5013481;28;20388;-82
2022/10/16 03:20:31;;;;;;;4.00;1.50;;;;;;;;;;5013246;28;20034;-82
2022/10/16 03:22:56;;;;;;;2.13;1.35;;;;;;;;;;5013067;28;20057;-81
2022/10/16 03:25:21;;;;;;;2.38;1.58;;;;;;;;;;4996900;28;20369;-81
2022/10/16 03:27:47;;;;;;;5.50;1.42;;;;;;;;;;5013163;28;20034;-82
2022/10/16 03:30:12;;;;;;;1.60;1.27;;;;;;;;;;4980328;28;20038;-82
2022/10/16 03:32:38;;;;;;;1.52;1.42;;;;;;;;;;5013279;28;20034;-82
2022/10/16 03:35:03;;;;;;;1.38;1.25;;;;;;;;;;5014100;28;20029;-82
2022/10/16 03:37:29;;;;;;;3.33;1.30;;;;;;;;;;5014054;28;20038;-82
2022/10/16 03:39:54;;;;;;;3.72;1.40;;;;;;;;;;5012658;28;20085;-81
2022/10/16 03:42:20;;;;;;;2.55;1.30;;;;;;;;;;5012767;28;20088;-82
2022/10/16 03:44:45;;;;;;;5.80;1.70;;;;;;;;;;5012944;28;20029;-82
2022/10/16 03:47:10;;;;;;;2.75;1.42;;;;;;;;;;4996493;28;20037;-81
2022/10/16 03:49:36;;;;;;;1.77;1.25;;;;;;;;;;5012791;28;20112;-81
2022/10/16 03:52:01;;;;;;;2.08;1.40;;;;;;;;;;5012835;28;20041;-81
2022/10/16 03:54:26;;;;;;;3.17;1.38;;;;;;;;;;5012596;28;20378;-81
2022/10/16 03:56:52;;;;;;;1.48;1.38;;;;;;;;;;5012505;28;20037;-82
2022/10/16 03:59:17;;;;;;;4.38;1.40;;;;;;;;;;5012585;28;20097;-82
2022/10/16 04:01:43;;;;;;;3.83;1.30;;;;;;;;;;4979706;28;20057;-82
2022/10/16 04:04:08;;;;;;;4.75;1.27;;;;;;;;;;4995955;28;20064;-82
2022/10/16 04:06:34;;;;;;;1.33;1.20;;;;;;;;;;5013522;28;20036;-82
2022/10/16 04:08:59;;;;;;;1.33;1.23;;;;;;;;;;5013639;28;20112;-81
2022/10/16 04:11:24;;;;;;;1.42;1.20;;;;;;;;;;5012379;28;20084;-81
2022/10/16 04:13:50;;;;;;;1.40;1.20;;;;;;;;;;5012171;28;20032;-81
2022/10/16 04:16:15;;;;;;;2.20;1.30;;;;;;;;;;4995823;28;20484;-82
2022/10/16 04:18:40;;;;;;;2.22;1.20;;;;;;;;;;5012322;28;20030;-82
2022/10/16 04:21:06;;;;;;;1.60;1.40;;;;;;;;;;5012225;28;20120;-81
2022/10/16 04:23:32;;;;;;;2.03;1.45;;;;;;;;;;5012154;28;20026;-81
2022/10/16 04:25:57;;;;;;;2.10;1.27;;;;;;;;;;4996258;28;20037;-81
2022/10/16 04:28:23;;;;;;;2.33;1.40;;;;;;;;;;5012191;28;20025;-81
2022/10/16 04:30:48;;;;;;;1.55;1.40;;;;;;;;;;5012099;28;20385;-80
2022/10/16 04:33:13;;;;;;;2.35;1.15;;;;;;;;;;5012374;28;20087;-81
2022/10/16 04:35:39;;;;;;;2.88;1.15;;;;;;;;;;4996041;28;20030;-80
2022/10/16 04:38:04;;;;;;;3.28;1.25;;;;;;;;;;5014123;28;20022;-81
2022/10/16 04:40:32;;;;;;;3.08;1.40;;;;;;;;;;5013929;28;20090;-81
2022/10/16 04:42:58;;;;;;;3.72;1.20;;;;;;;;;;5012880;28;20496;-81
2022/10/16 04:45:24;;;;;;;2.92;1.10;;;;;;;;;;5012760;28;20388;-81
2022/10/16 04:47:49;;;;;;;1.40;1.13;;;;;;;;;;5012538;28;20033;-81
2022/10/16 04:50:14;;;;;;;2.30;1.10;;;;;;;;;;5013015;28;20036;-81
2022/10/16 04:52:40;;;;;;;1.38;1.13;;;;;;;;;;5012652;28;20030;-81
2022/10/16 04:55:06;;;;;;;3.47;1.30;;;;;;;;;;5013804;28;20065;-81
2022/10/16 04:57:33;;;;;;;1.88;1.10;;;;;;;;;;5012726;28;20034;-81
2022/10/16 04:59:58;;;;;;;1.77;1.30;;;;;;;;;;5012925;28;20401;-81
2022/10/16 05:02:24;;;;;;;1.35;1.17;;;;;;;;;;4979870;28;20033;-81
2022/10/16 05:04:49;;;;;;;3.83;1.20;;;;;;;;;;5012311;28;20042;-81
2022/10/16 05:07:15;;;;;;;4.90;1.40;;;;;;;;;;5013444;28;20065;-81
2022/10/16 05:09:40;;;;;;;1.75;1.10;;;;;;;;;;4981476;28;20512;-82
2022/10/16 05:12:05;;;;;;;2.75;1.27;;;;;;;;;;4997116;28;20030;-81
2022/10/16 05:14:31;;;;;;;1.45;1.20;;;;;;;;;;4996603;28;20030;-81
2022/10/16 05:16:56;;;;;;;3.05;1.17;;;;;;;;;;4997319;28;20034;-81
2022/10/16 05:19:22;;;;;;;1.38;1.00;;;;;;;;;;5013082;28;20122;-82
2022/10/16 05:21:47;;;;;;;1.23;1.10;;;;;;;;;;5014875;28;20635;-81
2022/10/16 05:24:12;;;;;;;1.92;1.20;;;;;;;;;;5013650;28;20030;-81
2022/10/16 05:26:38;;;;;;;1.75;1.35;;;;;;;;;;5013734;28;20095;-81
2022/10/16 05:29:03;;;;;;;1.23;1.10;;;;;;;;;;4998490;28;20128;-81
2022/10/16 05:31:29;;;;;;;3.65;1.20;;;;;;;;;;5017967;28;20381;-81
2022/10/16 05:33:59;;;;;;;1.30;1.20;;;;;;;;;;5018429;28;20038;-81
2022/10/16 05:36:24;;;;;;;1.67;1.25;;;;;;;;;;5016855;28;20034;-81
2022/10/16 05:38:50;;;;;;;1.23;1.10;;;;;;;;;;5016741;28;20032;-81
2022/10/16 05:41:21;;;;;;;3.03;1.30;;;;;;;;;;5016096;28;20469;-81
2022/10/16 05:43:46;;;;;;;1.48;1.10;;;;;;;;;;5017605;28;20473;-82
2022/10/16 05:46:11;;;;;;;10.95;1.33;;;;;;;;;;5016286;28;20030;-82
2022/10/16 05:48:37;;;;;;;2.60;1.15;;;;;;;;;;5016779;28;20057;-80
2022/10/16 05:51:07;;;;;;;4.43;1.23;;;;;;;;;;5016127;28;20034;-80
2022/10/16 05:53:34;;;;;;;5.07;1.50;;;;;;;;;;4999402;28;20409;-80
2022/10/16 05:55:59;;;;;;;10.02;1.50;;;;;;;;;;4999211;28;20053;-80
2022/10/16 05:58:28;;;;;;;4.28;1.52;;;;;;;;;;5000061;28;20034;-80
2022/10/16 06:00:59;;;;;;;7.70;1.67;;;;;;;;;;5016397;28;20541;-80
2022/10/16 06:03:25;;;;;;;2.30;1.60;;;;;;;;;;5015982;28;20464;-80
2022/10/16 06:05:50;;;;;;;4.13;1.63;;;;;;;;;;5016080;28;20026;-80
2022/10/16 06:08:16;;;;;;;7.03;1.42;;;;;;;;;;5015386;28;20076;-80
2022/10/16 06:10:42;;;;;;;6.68;1.70;;;;;;;;;;5016949;28;20095;-80
2022/10/16 06:13:07;;;;;;;4.55;1.75;;;;;;;;;;5015779;28;20048;-80
2022/10/16 06:15:32;;;;;;;5.35;1.83;;;;;;;;;;5016646;28;20030;-80
2022/10/16 06:17:58;;;;;;;4.88;1.75;;;;;;;;;;5017048;28;20084;-80
2022/10/16 06:20:23;;;;;;;5.80;1.80;;;;;;;;;;4999481;28;20057;-80
2022/10/16 06:22:48;;;;;;;4.28;1.83;;;;;;;;;;5017225;28;20034;-80
2022/10/16 06:25:14;;;;;;;4.45;1.67;;;;;;;;;;4999176;28;20083;-80
2022/10/16 06:27:40;;;;;;;3.97;2.03;;;;;;;;;;5015819;28;20037;-80
2022/10/16 06:30:06;;;;;;;4.05;1.70;;;;;;;;;;5015542;28;20057;-80
2022/10/16 06:32:32;;;;;;;7.93;2.00;;;;;;;;;;4999655;28;20030;-79
2022/10/16 06:34:57;;;;;;;8.27;1.65;;;;;;;;;;5016254;28;20129;-80
2022/10/16 06:37:23;;;;;;;3.95;1.58;;;;;;;;;;5015627;28;20026;-80
2022/10/16 06:39:48;;;;;;;5.35;1.90;;;;;;;;;;5014483;28;20113;-79
2022/10/16 06:42:13;;;;;;;6.68;2.03;;;;;;;;;;5015607;28;20061;-80
2022/10/16 06:44:39;;;;;;;3.55;1.80;;;;;;;;;;5031198;28;20034;-80
2022/10/16 06:47:04;;;;;;;6.32;1.98;;;;;;;;;;5016441;28;20112;-79
2022/10/16 06:49:29;;;;;;;4.43;2.05;;;;;;;;;;5015672;28;20431;-79
2022/10/16 06:51:55;;;;;;;5.78;2.08;;;;;;;;;;5013790;28;20033;-79
2022/10/16 06:54:20;;;;;;;4.53;1.95;;;;;;;;;;5014020;28;20038;-79
2022/10/16 06:56:45;;;;;;;3.10;1.90;;;;;;;;;;5015094;28;20034;-79
2022/10/16 06:59:11;;;;;;;4.10;1.80;;;;;;;;;;5013975;28;20379;-80
2022/10/16 07:01:36;;;;;;;7.45;2.13;;;;;;;;;;5013650;28;20037;-80
2022/10/16 07:04:02;;;;;;;3.17;1.80;;;;;;;;;;5013611;28;20083;-80
2022/10/16 07:06:31;;;;;;;3.22;2.03;;;;;;;;;;4997230;28;20034;-80
2022/10/16 07:08:57;;;;;;;5.85;2.17;;;;;;;;;;5014773;28;20041;-80
2022/10/16 07:11:23;;;;;;;10.25;2.38;;;;;;;;;;5002939;28;20506;-80
2022/10/16 07:13:50;;;;;;;4.05;2.00;;;;;;;;;;5033577;28;20029;-80
2022/10/16 07:16:18;;;;;;;7.60;2.10;;;;;;;;;;5031934;28;20037;-79
2022/10/16 07:18:45;;;;;;;5.95;2.20;;;;;;;;;;5033751;28;20021;-79
2022/10/16 07:21:13;;;;;;;6.07;2.20;;;;;;;;;;5032714;28;20095;-80
2022/10/16 07:23:39;;;;;;;4.80;1.95;;;;;;;;;;5032508;28;20097;-80
2022/10/16 07:26:05;;;;;;;5.60;2.28;;;;;;;;;;5033767;28;20025;-80
2022/10/16 07:28:32;;;;;;;4.43;2.15;;;;;;;;;;5033856;28;20104;-80
2022/10/16 07:31:06;;;;;;;5.63;2.20;;;;;;;;;;5015684;28;20033;-80
2022/10/16 07:33:32;;;;;;;5.28;2.00;;;;;;;;;;5015953;28;20428;-81
2022/10/16 07:35:58;;;;;;;8.57;2.17;;;;;;;;;;5032373;28;20128;-81
2022/10/16 07:38:23;;;;;;;3.92;2.00;;;;;;;;;;5033631;28;20104;-81
2022/10/16 07:40:56;;;;;;;6.03;2.10;;;;;;;;;;5032416;28;20431;-81
2022/10/16 07:43:21;;;;;;;6.28;2.05;;;;;;;;;;5032335;28;20037;-81
2022/10/16 07:45:51;;;;;;;5.25;2.17;;;;;;;;;;5033213;28;20034;-81
2022/10/16 07:48:17;;;;;;;10.93;1.95;;;;;;;;;;4999998;28;20068;-81
2022/10/16 07:50:42;;;;;;;4.53;1.80;;;;;;;;;;5015375;28;20454;-80
2022/10/16 07:53:08;;;;;;;4.18;1.80;;;;;;;;;;5015856;28;20037;-81
2022/10/16 07:55:33;;;;;;;2.65;1.52;;;;;;;;;;5032226;28;20058;-81
2022/10/16 07:57:59;;;;;;;9.23;1.88;;;;;;;;;;5033518;28;20057;-80
2022/10/16 08:00:24;;;;;;;9.55;1.90;;;;;;;;;;5031969;28;20030;-80
2022/10/16 08:02:49;;;;;;;20.15;1.92;;;;;;;;;;5032009;28;20040;-80
2022/10/16 08:05:15;;;;;;;13.52;1.90;;;;;;;;;;5031921;28;20036;-81
2022/10/16 08:07:40;;;;;;;5.75;1.90;;;;;;;;;;5015447;28;20036;-81
2022/10/16 08:10:06;;;;;;;5.40;1.85;;;;;;;;;;5033897;28;20112;-82
2022/10/16 08:12:31;;;;;;;4.43;1.80;;;;;;;;;;5048547;28;20043;-81
2022/10/16 08:14:57;;;;;;;11.23;2.00;;;;;;;;;;4998701;28;20028;-81
2022/10/16 08:17:22;;;;;;;3.58;1.63;;;;;;;;;;5033287;28;20033;-81
2022/10/16 08:19:47;;;;;;;6.70;1.85;;;;;;;;;;5031623;28;20033;-79
2022/10/16 08:22:14;;;;;;;8.52;1.80;;;;;;;;;;5031659;28;20033;-80
2022/10/16 08:24:39;;;;;;;11.77;2.00;;;;;;;;;;5031606;28;20049;-81
2022/10/16 08:27:05;;;;;;;10.25;1.77;;;;;;;;;;5013561;28;20061;-81
2022/10/16 08:29:31;;;;;;;2.65;1.40;;;;;;;;;;5012824;28;20113;-81
2022/10/16 08:31:56;;;;;;;9.90;1.73;;;;;;;;;;5012510;28;20030;-81
2022/10/16 08:34:21;;;;;;;11.70;1.92;;;;;;;;;;5011827;28;20045;-81
2022/10/16 08:36:47;;;;;;;7.15;1.80;;;;;;;;;;5012018;28;20042;-81
2022/10/16 08:39:12;;;;;;;10.57;1.80;;;;;;;;;;5012449;28;20056;-81
2022/10/16 08:42:19;;;;;;;9.30;1.95;;;;;;;;;;5011721;28;20101;-81
2022/10/16 08:45:31;;;;;;;7.22;1.85;;;;;;;;;;4994480;28;20018;-81
2022/10/16 08:48:22;;;;;;;16.85;1.75;;;;;;;;;;4914223;29;20095;-81
2022/10/16 08:50:49;;;;;;;7.88;2.08;;;;;;;;;;4899059;29;20044;-81
2022/10/16 08:53:20;;;;;;;8.07;1.80;;;;;;;;;;4898439;29;20164;-80
2022/10/16 08:55:50;;;;;;;5.18;1.67;;;;;;;;;;4898741;29;20056;-80
2022/10/16 08:58:23;;;;;;;11.15;2.30;;;;;;;;;;4898554;29;20032;-80
2022/10/16 09:00:56;;;;;;;7.03;1.70;;;;;;;;;;4898346;29;20102;-81
2022/10/16 09:03:33;;;;;;;6.85;1.80;;;;;;;;;;4899672;29;20120;-81
2022/10/16 09:06:30;;;;;;;9.15;1.60;;;;;;;;;;4918344;29;20046;-80
2022/10/16 09:09:20;;;;;;;6.00;1.60;;;;;;;;;;4917654;29;20113;-80
2022/10/16 09:11:53;;;;;;;7.07;1.67;;;;;;;;;;4917956;29;20036;-81
2022/10/16 09:14:27;;;;;;;4.75;1.50;;;;;;;;;;4901917;29;20083;-79
2022/10/16 09:16:57;;;;;;;6.20;1.85;;;;;;;;;;4917882;29;20058;-81
2022/10/16 09:19:31;;;;;;;8.90;1.67;;;;;;;;;;4996433;28;20042;-81
2022/10/16 09:21:59;;;;;;;9.23;2.08;;;;;;;;;;5015125;28;20026;-81
2022/10/16 09:24:26;;;;;;;17.13;1.80;;;;;;;;;;5015001;28;20041;-81
2022/10/16 09:26:52;;;;;;;7.95;1.65;;;;;;;;;;5015007;28;20030;-81
2022/10/16 09:29:19;;;;;;;5.70;1.40;;;;;;;;;;5015067;28;20117;-82
2022/10/16 09:31:45;;;;;;;4.97;1.40;;;;;;;;;;5014945;28;20515;-81
2022/10/16 09:34:34;;;;;;;8.55;1.85;;;;;;;;;;5015825;28;20098;-81
2022/10/16 09:37:03;;;;;;;11.15;1.83;;;;;;;;;;5015802;28;20107;-81
2022/10/16 09:39:28;;;;;;;7.43;1.70;;;;;;;;;;5015283;28;20100;-82
2022/10/16 09:41:55;;;;;;;10.95;1.70;;;;;;;;;;4998299;28;20498;-81
2022/10/16 09:44:25;;;;;;;8.20;1.92;;;;;;;;;;5015858;28;20098;-81
2022/10/16 09:47:05;;;;;;;6.22;1.75;;;;;;;;;;5015764;28;20029;-81
2022/10/16 09:49:30;;;;;;;6.38;1.95;;;;;;;;;;5017663;28;20025;-81
2022/10/16 09:52:11;;;;;;;14.93;2.33;;;;;;;;;;5015783;28;20037;-80
2022/10/16 09:54:37;;;;;;;11.43;2.20;;;;;;;;;;5015475;28;20533;-80
2022/10/16 09:57:07;;;;;;;14.20;2.17;;;;;;;;;;5015556;28;20122;-80
2022/10/16 09:59:32;;;;;;;11.20;2.22;;;;;;;;;;5015328;28;20029;-81
2022/10/16 10:02:03;;;;;;;9.02;2.00;;;;;;;;;;5014309;28;20435;-81
2022/10/16 10:04:38;;;;;;;14.00;2.72;;;;;;;;;;5014552;28;20060;-80
2022/10/16 10:07:04;;;;;;;8.27;1.70;;;;;;;;;;5015602;28;20017;-80
2022/10/16 10:09:35;;;;;;;6.95;1.60;;;;;;;;;;4998772;28;20108;-80
2022/10/16 10:12:04;;;;;;;10.25;1.98;;;;;;;;;;5014937;28;20054;-81
2022/10/16 10:14:38;;;;;;;10.48;2.03;;;;;;;;;;4998013;28;20109;-80
2022/10/16 10:17:16;;;;;;;6.63;1.60;;;;;;;;;;4998540;28;20433;-81
2022/10/16 10:19:47;;;;;;;7.95;1.80;;;;;;;;;;5014985;28;20506;-80
2022/10/16 10:22:23;;;;;;;8.02;1.58;;;;;;;;;;5016033;28;20040;-81
2022/10/16 10:25:07;;;;;;;7.63;1.75;;;;;;;;;;4998458;28;20045;-81
2022/10/16 10:27:51;;;;;;;;;;;;;;;;;;5020570;28;20524;-81
2022/10/16 10:30:37;;;;;;;9.23;2.00;;;;;;;;;;5015722;28;19964;-80
2022/10/16 10:33:27;;;;;;;8.13;2.15;;;;;;;;;;5015019;28;20120;-81
2022/10/16 10:36:14;;;;;;;5.18;1.67;;;;;;;;;;5013734;28;20433;-81
2022/10/16 10:39:02;;;;;;;6.50;1.90;;;;;;;;;;5014981;28;20036;-81
2022/10/16 10:42:04;;;;;;;4.85;1.50;;;;;;;;;;5013652;28;20337;-81
2022/10/16 10:44:48;;;;;;;4.97;1.58;;;;;;;;;;5013657;28;20026;-82
2022/10/16 10:47:32;;;;;;;;;;;;;;;;;;5013893;28;20029;-81
2022/10/16 10:50:03;;;;;;;9.93;1.63;;;;;;;;;;4998020;28;19957;-82
2022/10/16 10:52:47;;;;;;;5.55;1.90;;;;;;;;;;5014715;28;20088;-82
2022/10/16 10:55:31;;;;;;;6.55;1.58;;;;;;;;;;5013252;28;20046;-81
2022/10/16 10:58:15;;;;;;;;;;;;;;;;;;4997656;28;20137;-82
2022/10/16 11:00:44;;;;;;;17.52;1.85;;;;;;;;;;5014288;28;19944;-82
2022/10/16 11:03:27;;;;;;;10.68;1.90;;;;;;;;;;5018933;28;20037;-82
2022/10/16 11:05:56;;;;;;;8.38;2.10;;;;;;;;;;5017835;28;20483;-81
2022/10/16 11:08:30;;;;;;;13.75;1.90;;;;;;;;;;5015604;28;20404;-81
2022/10/16 11:11:08;;;;;;;4.65;1.80;;;;;;;;;;5000088;28;20089;-81
2022/10/16 11:13:43;;;;;;;10.48;1.63;;;;;;;;;;5017406;28;20037;-81
2022/10/16 11:16:22;;;;;;;5.68;1.80;;;;;;;;;;4999223;28;20026;-82
2022/10/16 11:19:18;;;;;;;7.45;1.73;;;;;;;;;;5014074;28;20455;-81
2022/10/16 11:21:54;;;;;;;5.55;1.63;;;;;;;;;;5030789;28;20089;-81
2022/10/16 11:24:42;;;;;;;8.75;2.15;;;;;;;;;;5019733;28;20045;-82
2022/10/16 11:27:11;;;;;;;9.95;1.75;;;;;;;;;;5014133;28;20365;-82
2022/10/16 11:29:45;;;;;;;10.00;1.63;;;;;;;;;;4996840;28;20033;-81
2022/10/16 11:32:36;;;;;;;15.23;2.15;;;;;;;;;;5013209;28;20583;-81
2022/10/16 11:35:11;;;;;;;12.38;2.10;;;;;;;;;;5012760;28;20663;-81
2022/10/16 11:37:42;;;;;;;6.13;1.67;;;;;;;;;;5013804;28;20026;-81
2022/10/16 11:40:33;;;;;;;6.82;1.92;;;;;;;;;;5013727;28;20041;-81
2022/10/16 11:43:19;;;;;;;5.60;1.80;;;;;;;;;;5012643;28;20487;-80
2022/10/16 11:45:53;;;;;;;6.65;1.77;;;;;;;;;;5012305;28;20026;-81
2022/10/16 11:48:34;;;;;;;12.20;2.25;;;;;;;;;;5012477;28;20029;-80
2022/10/16 11:51:13;;;;;;;9.23;1.83;;;;;;;;;;5012494;28;20109;-81
2022/10/16 11:53:59;;;;;;;6.70;1.70;;;;;;;;;;4996145;28;20025;-81
2022/10/16 11:56:25;;;;;;;6.70;1.90;;;;;;;;;;5014505;28;20050;-80
2022/10/16 11:58:56;;;;;;;7.40;1.70;;;;;;;;;;5015964;28;20045;-80
2022/10/16 12:01:38;;;;;;;9.63;1.65;;;;;;;;;;5012941;28;20109;-80
2022/10/16 12:04:27;;;;;;;8.80;1.77;;;;;;;;;;4995948;28;20037;-80
2022/10/16 12:07:09;;;;;;;5.60;1.75;;;;;;;;;;5012147;28;20392;-80
2022/10/16 12:09:37;;;;;;;10.75;1.92;;;;;;;;;;4995690;28;20084;-81
2022/10/16 12:12:02;;;;;;;4.43;1.75;;;;;;;;;;5011929;28;20026;-80
2022/10/16 12:14:28;;;;;;;10.15;1.65;;;;;;;;;;4979107;28;20037;-80
2022/10/16 12:17:01;;;;;;;9.05;1.88;;;;;;;;;;5013221;28;20025;-80
2022/10/16 12:19:28;;;;;;;6.70;1.55;;;;;;;;;;5013268;28;20400;-80
2022/10/16 12:21:57;;;;;;;7.00;2.15;;;;;;;;;;4997724;28;20041;-80
2022/10/16 12:24:38;;;;;;;12.45;1.88;;;;;;;;;;5000464;28;20516;-80
2022/10/16 12:27:06;;;;;;;6.78;2.00;;;;;;;;;;5001169;28;20068;-80
2022/10/16 12:29:38;;;;;;;3.97;1.65;;;;;;;;;;5014108;28;20025;-79
2022/10/16 12:32:06;;;;;;;7.70;1.90;;;;;;;;;;4996903;28;20030;-79
2022/10/16 12:34:42;;;;;;;10.27;2.00;;;;;;;;;;5013163;28;20377;-79
2022/10/16 12:37:15;;;;;;;6.97;2.00;;;;;;;;;;5013049;28;20038;-79
2022/10/16 12:39:40;;;;;;;10.60;2.17;;;;;;;;;;5016404;28;20029;-79
2022/10/16 12:42:22;;;;;;;4.80;1.77;;;;;;;;;;5000169;28;20761;-79
2022/10/16 12:44:48;;;;;;;5.88;1.75;;;;;;;;;;5018031;28;20037;-80
2022/10/16 12:47:30;;;;;;;6.47;1.70;;;;;;;;;;5000076;28;20033;-80
2022/10/16 12:49:55;;;;;;;6.63;1.70;;;;;;;;;;5016373;28;20169;-79
2022/10/16 12:52:38;;;;;;;7.75;1.88;;;;;;;;;;4999922;28;20129;-79
2022/10/16 12:55:05;;;;;;;5.25;1.70;;;;;;;;;;4999701;28;20052;-80
2022/10/16 12:57:49;;;;;;;3.25;1.48;;;;;;;;;;5016416;28;20546;-80
2022/10/16 13:00:25;;;;;;;;;;;;;;;;;;5017353;28;20030;-80
2022/10/16 13:03:02;;;;;;;6.40;1.50;;;;;;;;;;4999972;28;19925;-80
2022/10/16 13:05:51;;;;;;;10.70;2.17;;;;;;;;;;5017676;28;20022;-80
2022/10/16 13:08:34;;;;;;;9.30;1.88;;;;;;;;;;4999944;28;20088;-81
2022/10/16 13:11:30;;;;;;;7.32;1.70;;;;;;;;;;5015811;28;20492;-81
2022/10/16 13:14:05;;;;;;;7.13;1.70;;;;;;;;;;5017088;28;20436;-81
2022/10/16 13:16:36;;;;;;;22.73;2.10;;;;;;;;;;5016020;28;20113;-80
2022/10/16 13:19:13;;;;;;;6.53;1.80;;;;;;;;;;5017401;28;20037;-80
2022/10/16 13:21:57;;;;;;;6.70;1.48;;;;;;;;;;5016971;28;20029;-80
2022/10/16 13:24:57;;;;;;;5.20;1.73;;;;;;;;;;5017258;28;20562;-80
2022/10/16 13:27:28;;;;;;;7.22;1.67;;;;;;;;;;5015850;28;20088;-81
2022/10/16 13:30:00;;;;;;;6.80;1.90;;;;;;;;;;5017031;28;20057;-81
2022/10/16 13:32:26;;;;;;;6.13;1.70;;;;;;;;;;5016765;28;20038;-81
2022/10/16 13:34:53;;;;;;;9.93;1.80;;;;;;;;;;5017848;28;20034;-81
2022/10/16 13:37:23;;;;;;;6.70;1.65;;;;;;;;;;4999500;28;20034;-81
2022/10/16 13:39:50;;;;;;;6.22;1.85;;;;;;;;;;5015528;28;20034;-81
2022/10/16 13:42:27;;;;;;;5.25;1.60;;;;;;;;;;5016281;28;20393;-81
2022/10/16 13:44:54;;;;;;;7.43;1.83;;;;;;;;;;5016281;28;20392;-80
2022/10/16 13:47:25;;;;;;;7.30;2.00;;;;;;;;;;5002548;28;20026;-82
2022/10/16 13:50:33;;;;;;;6.65;1.40;;;;;;;;;;5000052;28;20026;-81
2022/10/16 13:53:13;;;;;;;6.13;1.90;;;;;;;;;;4991602;23;20081;-81
2022/10/16 13:55:38;;;;;;;5.85;1.40;;;;;;;;;;4976231;28;20379;-81
2022/10/16 13:58:07;;;;;;;10.10;1.70;;;;;;;;;;4959982;28;20118;-81
2022/10/16 14:00:33;;;;;;;7.13;1.80;;;;;;;;;;4976087;28;20548;-81
2022/10/16 14:03:11;;;;;;;4.15;1.83;;;;;;;;;;4976716;28;20131;-82
2022/10/16 14:05:43;;;;;;;9.63;1.90;;;;;;;;;;4979684;28;20023;-82
2022/10/16 14:08:10;;;;;;;3.78;1.60;;;;;;;;;;4976273;28;20026;-82
2022/10/16 14:10:36;;;;;;;8.52;1.75;;;;;;;;;;4986909;28;20038;-80
2022/10/16 14:13:04;;;;;;;6.50;1.55;;;;;;;;;;4964764;28;20038;-83
2022/10/16 14:15:31;;;;;;;3.92;1.40;;;;;;;;;;4959848;28;20027;-82
2022/10/16 14:17:57;;;;;;;8.13;1.95;;;;;;;;;;4960084;28;20030;-83
2022/10/16 14:20:28;;;;;;;9.02;1.90;;;;;;;;;;4976159;28;20027;-83
2022/10/16 14:23:20;;;;;;;5.78;1.92;;;;;;;;;;4978429;28;20397;-81
2022/10/16 14:25:46;;;;;;;11.70;1.73;;;;;;;;;;4976554;28;20026;-82
2022/10/16 14:28:15;;;;;;;7.13;1.70;;;;;;;;;;4978872;28;20058;-81
2022/10/16 14:30:55;;;;;;;7.40;1.63;;;;;;;;;;4962348;28;20023;-82
2022/10/16 14:33:23;;;;;;;6.72;1.52;;;;;;;;;;4976831;28;20069;-82
2022/10/16 14:36:00;;;;;;;6.00;1.60;;;;;;;;;;4975388;28;20470;-81
2022/10/16 14:38:25;;;;;;;12.45;2.10;;;;;;;;;;4977303;28;20026;-81
2022/10/16 14:40:51;;;;;;;8.38;1.88;;;;;;;;;;4975955;28;20039;-81
2022/10/16 14:43:30;;;;;;;6.97;1.70;;;;;;;;;;4976792;28;20496;-82
2022/10/16 14:45:56;;;;;;;12.57;1.70;;;;;;;;;;4959208;28;20504;-82
2022/10/16 14:48:22;;;;;;;9.77;2.58;;;;;;;;;;4975024;28;20392;-81
2022/10/16 14:50:47;;;;;;;10.18;1.83;;;;;;;;;;4976281;28;20158;-81
2022/10/16 14:53:13;;;;;;;10.57;1.90;;;;;;;;;;4958941;28;20086;-82
2022/10/16 14:55:40;;;;;;;4.97;1.92;;;;;;;;;;4975497;28;20030;-82
2022/10/16 14:58:15;;;;;;;8.15;1.70;;;;;;;;;;4975362;28;20055;-83
2022/10/16 15:00:41;;;;;;;9.75;2.28;;;;;;;;;;4975211;28;20109;-83
2022/10/16 15:03:06;;;;;;;11.43;1.77;;;;;;;;;;4959312;28;20065;-83